Main page
METAR-TAF:

METAR-TAF

Airports :

Gloucester, England

Gloucestershire Airport

latitude: 51-54N, longitude: 002-10W, elevation: 29 m

Current weather observation

The report was made 1 hour and 3 minutes ago, at 09:50 UTC
Calm wind
Temperature 3°C
Humidity 93%
Pressure 1030 hPa
Visibility 10 km or more
Few clouds at a height of 1000 ft
Scattered clouds at a height of 1500 ft

METAR: EGBJ 180950Z 00000KT 9999 FEW010 SCT015 03/02 Q1030

Time: 10:53 (10:53 UTC)

Forecast

The report was made 2 hours and 49 minutes ago, at 08:04 UTC
Forecast valid from 18 at 09 UTC to 18 at 18 UTC
Wind 3 kt from variable directions
Visibility 10 km or more
Few clouds at a height of 2500 ft
Probability 30% :
Temporary
from 18 at 10 UTC to 18 at 15 UTC
Broken clouds at a height of 1000 ft

TAF: EGBJ 180804Z 1809/1818 VRB03KT 9999 FEW025 PROB30 TEMPO 1810/1815 BKN010

Weather observations and forecasts of more than 4000 airports (METAR and TAF reports).

The available stations are represented by yellow and red dots on the map.

Hover mouse over dot to see the name of the station.

Then click to see weather observations and forecasts.

To change the map : click on the green buttons with a black cross to zoom in, on the green button with a dash to zoom out, or on the green arrows for adjacent maps.


METAR-TAF: